Time;durP1;ratioP1;P1;durP2;ratioP2;P2;SDS_P1;SDS_P2;PMS_P1;PMS_P2;Temp;Humidity;BMP_temperature;BMP_pressure;BME280_temperature;BME280_humidity;BME280_pressure;Samples;Min_cycle;Max_cycle;Signal;HPM_P1;HPM_P2
2023/01/27 00:00:14;;;;;;;21.75;8.32;;;;;;;;;;5059983;28;20068;-61
2023/01/27 00:02:40;;;;;;;25.13;8.20;;;;;;;;;;5065500;28;20028;-62
2023/01/27 00:05:05;;;;;;;26.27;8.77;;;;;;;;;;5057716;28;20024;-62
2023/01/27 00:07:30;;;;;;;28.88;9.25;;;;;;;;;;5054492;28;20020;-62
2023/01/27 00:09:55;;;;;;;20.48;7.70;;;;;;;;;;5061441;28;20020;-62
2023/01/27 00:15:06;;;;;;;23.02;8.23;;;;;;;;;;5053845;28;20097;-62
2023/01/27 00:17:32;;;;;;;23.23;8.05;;;;;;;;;;5055507;28;20037;-62
2023/01/27 00:19:57;;;;;;;25.15;9.05;;;;;;;;;;5055520;28;20131;-62
2023/01/27 00:25:06;;;;;;;24.83;8.05;;;;;;;;;;5052765;28;20171;-61
2023/01/27 00:27:32;;;;;;;20.10;7.23;;;;;;;;;;5053381;28;20493;-62
2023/01/27 00:29:57;;;;;;;19.93;7.23;;;;;;;;;;5060810;28;20486;-64
2023/01/27 00:35:06;;;;;;;24.33;8.00;;;;;;;;;;5049232;28;20051;-63
2023/01/27 00:37:31;;;;;;;20.83;6.85;;;;;;;;;;5049319;28;20025;-62
2023/01/27 00:39:56;;;;;;;22.50;7.83;;;;;;;;;;5048613;28;20017;-61
2023/01/27 00:42:22;;;;;;;23.83;8.02;;;;;;;;;;5049090;28;20025;-63
2023/01/27 00:47:30;;;;;;;21.10;7.80;;;;;;;;;;5051923;28;20497;-65
2023/01/27 00:49:56;;;;;;;22.50;8.13;;;;;;;;;;5055094;28;20013;-64
2023/01/27 00:52:21;;;;;;;20.00;7.60;;;;;;;;;;5050659;28;20024;-61
2023/01/27 00:54:46;;;;;;;21.13;8.03;;;;;;;;;;5053519;28;20124;-62
2023/01/27 00:57:11;;;;;;;20.63;7.50;;;;;;;;;;5049690;28;20429;-61
2023/01/27 00:59:36;;;;;;;20.27;7.97;;;;;;;;;;5047646;28;20021;-63
2023/01/27 01:02:01;;;;;;;21.90;7.65;;;;;;;;;;5047672;28;20059;-65
2023/01/27 01:04:26;;;;;;;22.30;7.88;;;;;;;;;;5053570;28;20373;-63
2023/01/27 01:06:51;;;;;;;22.88;8.60;;;;;;;;;;5059249;28;20052;-64
2023/01/27 01:09:17;;;;;;;21.27;7.50;;;;;;;;;;5050571;28;20028;-64
2023/01/27 01:11:42;;;;;;;22.57;8.10;;;;;;;;;;5057244;28;20396;-63
2023/01/27 01:14:07;;;;;;;21.77;7.70;;;;;;;;;;5053876;28;20374;-63
2023/01/27 01:16:32;;;;;;;22.67;8.13;;;;;;;;;;5051641;28;20444;-63
2023/01/27 01:18:57;;;;;;;22.75;8.35;;;;;;;;;;5053726;28;20021;-63
2023/01/27 01:21:22;;;;;;;22.80;8.05;;;;;;;;;;5055976;28;20017;-63
2023/01/27 01:23:47;;;;;;;21.02;8.18;;;;;;;;;;5048575;28;20032;-61
2023/01/27 01:26:14;;;;;;;21.85;7.40;;;;;;;;;;5048471;28;20043;-62
2023/01/27 01:28:39;;;;;;;21.55;8.30;;;;;;;;;;5050162;28;20071;-62
2023/01/27 01:31:08;;;;;;;21.83;7.93;;;;;;;;;;5050286;28;20451;-62
2023/01/27 01:33:34;;;;;;;19.75;7.35;;;;;;;;;;5051583;28;20013;-62
2023/01/27 01:36:06;;;;;;;20.10;8.00;;;;;;;;;;5059562;28;20073;-64
2023/01/27 01:38:31;;;;;;;21.83;8.02;;;;;;;;;;5046489;28;20025;-62
2023/01/27 01:40:56;;;;;;;20.35;7.70;;;;;;;;;;5049154;28;20021;-63
2023/01/27 01:43:21;;;;;;;18.93;7.57;;;;;;;;;;5049085;28;20153;-62
2023/01/27 01:45:48;;;;;;;22.77;8.03;;;;;;;;;;5050450;28;20021;-64
2023/01/27 01:48:16;;;;;;;23.27;8.48;;;;;;;;;;5052024;28;20078;-62
2023/01/27 01:50:43;;;;;;;23.23;8.40;;;;;;;;;;5050117;28;20017;-62
2023/01/27 01:53:09;;;;;;;24.50;8.60;;;;;;;;;;5062212;28;20040;-62
2023/01/27 01:55:36;;;;;;;22.75;8.88;;;;;;;;;;5057189;28;20128;-64
2023/01/27 01:58:01;;;;;;;21.98;8.60;;;;;;;;;;5057615;28;20021;-63
2023/01/27 02:00:26;;;;;;;22.03;8.37;;;;;;;;;;5050987;28;20028;-62
2023/01/27 02:02:53;;;;;;;22.60;8.48;;;;;;;;;;5056438;28;20021;-62
2023/01/27 02:05:23;;;;;;;22.85;8.65;;;;;;;;;;5050930;28;20028;-64
2023/01/27 02:07:52;;;;;;;17.48;6.70;;;;;;;;;;5050719;28;20081;-64
2023/01/27 02:10:18;;;;;;;19.38;7.25;;;;;;;;;;5050177;28;20029;-61
2023/01/27 02:12:43;;;;;;;18.33;6.80;;;;;;;;;;5058627;28;20017;-65
2023/01/27 02:15:09;;;;;;;18.20;6.93;;;;;;;;;;5052080;28;20029;-64
2023/01/27 02:17:34;;;;;;;17.77;7.07;;;;;;;;;;5051384;28;20032;-64
2023/01/27 02:20:05;;;;;;;18.40;7.18;;;;;;;;;;5049807;28;20163;-62
2023/01/27 02:22:33;;;;;;;18.38;6.55;;;;;;;;;;5050602;28;20024;-64
2023/01/27 02:25:02;;;;;;;19.23;7.03;;;;;;;;;;5051146;28;20020;-64
2023/01/27 02:27:27;;;;;;;15.55;6.18;;;;;;;;;;5053013;28;20552;-62
2023/01/27 02:29:52;;;;;;;18.05;7.20;;;;;;;;;;5054530;28;20020;-62
2023/01/27 02:32:22;;;;;;;21.08;7.57;;;;;;;;;;5046974;28;20121;-62
2023/01/27 02:34:47;;;;;;;21.20;7.80;;;;;;;;;;5047449;28;20025;-62
2023/01/27 02:37:12;;;;;;;18.23;6.70;;;;;;;;;;5057832;28;20132;-62
2023/01/27 02:39:40;;;;;;;21.00;7.37;;;;;;;;;;5050154;28;20071;-62
2023/01/27 02:42:06;;;;;;;18.13;7.00;;;;;;;;;;5058093;28;20032;-62
2023/01/27 02:44:32;;;;;;;20.33;7.60;;;;;;;;;;5046907;28;20025;-62
2023/01/27 02:46:57;;;;;;;18.27;6.55;;;;;;;;;;5050220;28;20503;-62
2023/01/27 02:49:22;;;;;;;21.15;7.78;;;;;;;;;;5051432;28;20382;-63
2023/01/27 02:51:47;;;;;;;18.48;7.22;;;;;;;;;;5052793;28;20029;-63
2023/01/27 02:54:12;;;;;;;19.35;6.97;;;;;;;;;;5050840;28;20057;-63
2023/01/27 02:56:37;;;;;;;22.80;7.77;;;;;;;;;;5054828;28;20108;-63
2023/01/27 02:59:03;;;;;;;20.10;7.03;;;;;;;;;;5051300;28;20103;-63
2023/01/27 03:01:31;;;;;;;22.07;8.37;;;;;;;;;;5055402;28;20067;-63
2023/01/27 03:03:56;;;;;;;22.75;7.80;;;;;;;;;;5049710;28;20083;-63
2023/01/27 03:06:21;;;;;;;20.00;7.68;;;;;;;;;;5058010;28;20036;-63
2023/01/27 03:08:46;;;;;;;21.23;7.47;;;;;;;;;;5048584;28;20021;-63
2023/01/27 03:11:11;;;;;;;21.60;7.73;;;;;;;;;;5051077;28;20017;-63
2023/01/27 03:13:37;;;;;;;22.13;7.40;;;;;;;;;;5058381;28;20032;-63
2023/01/27 03:18:48;;;;;;;25.85;8.75;;;;;;;;;;5053597;28;20039;-63
2023/01/27 03:21:14;;;;;;;22.45;8.18;;;;;;;;;;5049398;28;20155;-62
2023/01/27 03:23:39;;;;;;;22.58;7.88;;;;;;;;;;5055293;28;20107;-63
2023/01/27 03:26:05;;;;;;;21.92;8.50;;;;;;;;;;5046998;28;20025;-63
2023/01/27 03:28:30;;;;;;;21.73;8.00;;;;;;;;;;5044954;28;20029;-63
2023/01/27 03:31:06;;;;;;;23.42;8.50;;;;;;;;;;5052225;28;20025;-63
2023/01/27 03:33:31;;;;;;;19.63;7.60;;;;;;;;;;5050564;28;20033;-62
2023/01/27 03:46:55;;;;;;;24.30;8.63;;;;;;;;;;5051975;28;20104;-61
2023/01/27 03:49:20;;;;;;;24.48;8.60;;;;;;;;;;5058847;28;20044;-62
2023/01/27 03:51:45;;;;;;;23.33;8.10;;;;;;;;;;5048853;28;20040;-62
2023/01/27 03:54:10;;;;;;;25.50;8.88;;;;;;;;;;5049181;28;20013;-62
2023/01/27 03:56:35;;;;;;;20.85;7.63;;;;;;;;;;5047387;28;20052;-61
2023/01/27 03:59:01;;;;;;;25.48;8.15;;;;;;;;;;5047981;28;20451;-65
2023/01/27 04:01:26;;;;;;;26.23;8.57;;;;;;;;;;5031339;28;20030;-62
2023/01/27 04:06:56;;;;;;;22.45;6.93;;;;;;;;;;5049921;28;20075;-63
2023/01/27 04:09:32;;;;;;;20.42;6.60;;;;;;;;;;5049617;28;20024;-63
2023/01/27 04:11:58;;;;;;;21.63;6.47;;;;;;;;;;5056306;28;20024;-65
2023/01/27 04:14:25;;;;;;;21.10;6.68;;;;;;;;;;5060961;28;20059;-64
2023/01/27 04:16:51;;;;;;;22.63;7.72;;;;;;;;;;5046525;28;20431;-64
2023/01/27 04:19:17;;;;;;;21.95;6.38;;;;;;;;;;5045281;28;20108;-61
2023/01/27 04:21:42;;;;;;;21.15;6.45;;;;;;;;;;5052200;28;20108;-63
2023/01/27 04:24:15;;;;;;;19.38;6.32;;;;;;;;;;5048537;28;20028;-61
2023/01/27 04:26:43;;;;;;;19.42;6.15;;;;;;;;;;5047382;28;20049;-63
2023/01/27 04:29:10;;;;;;;19.95;6.60;;;;;;;;;;5043311;28;20021;-64
2023/01/27 04:31:35;;;;;;;18.65;5.95;;;;;;;;;;5050070;28;20073;-63
2023/01/27 04:34:00;;;;;;;21.17;6.47;;;;;;;;;;5051965;28;20537;-63
2023/01/27 04:36:25;;;;;;;22.88;7.40;;;;;;;;;;5042212;28;20048;-63
2023/01/27 04:38:50;;;;;;;19.63;6.53;;;;;;;;;;5054407;28;20032;-63
2023/01/27 04:41:15;;;;;;;20.52;6.10;;;;;;;;;;5060353;28;20487;-64
2023/01/27 04:43:41;;;;;;;19.83;6.77;;;;;;;;;;5060580;28;20009;-63
2023/01/27 04:46:06;;;;;;;21.27;7.10;;;;;;;;;;5054640;28;20110;-64
2023/01/27 04:48:31;;;;;;;22.43;6.73;;;;;;;;;;5056623;28;20605;-63
2023/01/27 04:50:56;;;;;;;21.57;6.70;;;;;;;;;;5051420;28;20083;-61
2023/01/27 04:53:22;;;;;;;18.57;5.60;;;;;;;;;;5052387;28;20044;-63
2023/01/27 04:55:48;;;;;;;21.40;7.13;;;;;;;;;;5057972;28;20123;-64
2023/01/27 04:58:15;;;;;;;18.95;6.22;;;;;;;;;;5048630;28;20021;-62
2023/01/27 05:00:40;;;;;;;20.23;6.55;;;;;;;;;;5053604;28;20031;-64
2023/01/27 05:03:08;;;;;;;21.08;6.07;;;;;;;;;;5062856;28;20099;-62
2023/01/27 05:05:33;;;;;;;19.20;5.93;;;;;;;;;;5058408;28;20033;-62
2023/01/27 05:08:04;;;;;;;20.03;6.47;;;;;;;;;;5054059;28;20092;-63
2023/01/27 05:10:30;;;;;;;20.77;6.30;;;;;;;;;;5041658;28;20124;-64
2023/01/27 05:12:55;;;;;;;20.55;6.78;;;;;;;;;;5050557;28;20032;-63
2023/01/27 05:15:20;;;;;;;19.92;6.07;;;;;;;;;;5047459;28;20173;-64
2023/01/27 05:17:45;;;;;;;19.83;6.50;;;;;;;;;;5052020;28;20025;-64
2023/01/27 05:20:11;;;;;;;19.50;6.30;;;;;;;;;;5055972;28;20459;-62
2023/01/27 05:22:36;;;;;;;19.57;6.50;;;;;;;;;;5047795;28;20033;-63
2023/01/27 05:25:01;;;;;;;21.67;6.75;;;;;;;;;;5055976;28;20466;-61
2023/01/27 05:27:26;;;;;;;17.95;5.60;;;;;;;;;;5053781;28;20032;-62
2023/01/27 05:29:51;;;;;;;21.55;5.75;;;;;;;;;;5049145;28;20082;-63
2023/01/27 05:32:16;;;;;;;18.80;6.20;;;;;;;;;;5037750;28;20479;-63
2023/01/27 05:34:41;;;;;;;19.85;5.80;;;;;;;;;;5042308;28;20021;-64
2023/01/27 05:37:06;;;;;;;21.48;6.45;;;;;;;;;;5048411;28;20049;-63
2023/01/27 05:39:32;;;;;;;18.30;5.95;;;;;;;;;;5050041;28;20056;-63
2023/01/27 05:41:57;;;;;;;22.70;6.47;;;;;;;;;;5046411;28;20514;-65
2023/01/27 05:44:22;;;;;;;20.20;6.30;;;;;;;;;;5053201;28;20017;-63
2023/01/27 05:46:47;;;;;;;22.00;5.70;;;;;;;;;;5045131;28;20024;-62
2023/01/27 05:49:12;;;;;;;19.17;5.95;;;;;;;;;;5046520;28;20074;-62
2023/01/27 05:51:38;;;;;;;21.30;5.77;;;;;;;;;;5054896;28;20091;-62
2023/01/27 05:54:04;;;;;;;18.10;5.95;;;;;;;;;;5051120;28;20488;-62
2023/01/27 05:56:29;;;;;;;16.88;5.85;;;;;;;;;;5047298;28;20049;-63
2023/01/27 05:58:55;;;;;;;19.35;5.85;;;;;;;;;;5047452;28;20032;-62
2023/01/27 06:01:21;;;;;;;19.33;5.82;;;;;;;;;;5050488;28;20033;-64
2023/01/27 06:03:47;;;;;;;20.05;6.30;;;;;;;;;;5050316;28;20024;-60
2023/01/27 06:06:13;;;;;;;21.20;6.30;;;;;;;;;;5047452;28;20024;-61
2023/01/27 06:08:38;;;;;;;20.23;5.88;;;;;;;;;;5052900;28;20016;-63
2023/01/27 06:11:04;;;;;;;18.90;5.87;;;;;;;;;;5046892;28;20528;-62
2023/01/27 06:13:29;;;;;;;19.95;5.88;;;;;;;;;;5030403;28;20021;-65
2023/01/27 06:15:54;;;;;;;19.27;5.27;;;;;;;;;;5045169;28;20041;-61
2023/01/27 06:18:20;;;;;;;20.80;5.93;;;;;;;;;;5050620;28;20530;-64
2023/01/27 06:20:45;;;;;;;19.65;5.82;;;;;;;;;;5060044;28;20013;-64
2023/01/27 06:23:11;;;;;;;20.60;5.75;;;;;;;;;;5051134;28;20059;-63
2023/01/27 06:25:40;;;;;;;21.35;6.22;;;;;;;;;;5052697;28;20044;-63
2023/01/27 06:28:06;;;;;;;20.85;6.40;;;;;;;;;;5068210;28;20017;-63
2023/01/27 06:30:32;;;;;;;21.08;5.95;;;;;;;;;;5064886;28;20075;-63
2023/01/27 06:32:57;;;;;;;19.02;5.88;;;;;;;;;;5062975;28;20031;-63
2023/01/27 06:35:22;;;;;;;19.83;6.43;;;;;;;;;;5071116;28;20017;-62
2023/01/27 06:37:48;;;;;;;23.10;6.68;;;;;;;;;;5059699;28;20079;-63
2023/01/27 06:40:14;;;;;;;18.98;6.30;;;;;;;;;;5037423;28;20036;-66
2023/01/27 06:42:40;;;;;;;17.30;5.63;;;;;;;;;;5042003;28;20021;-66
2023/01/27 06:45:06;;;;;;;20.10;6.43;;;;;;;;;;5064647;28;20025;-66
2023/01/27 06:47:31;;;;;;;18.95;5.90;;;;;;;;;;5057852;28;20070;-68
2023/01/27 06:49:56;;;;;;;21.08;6.00;;;;;;;;;;5060897;28;20025;-66
2023/01/27 06:52:21;;;;;;;18.65;6.47;;;;;;;;;;5056218;28;20036;-68
2023/01/27 06:54:46;;;;;;;19.83;5.83;;;;;;;;;;5053388;28;20377;-66
2023/01/27 06:57:11;;;;;;;16.65;6.28;;;;;;;;;;5071499;28;20362;-65
2023/01/27 06:59:37;;;;;;;20.13;6.35;;;;;;;;;;5058798;28;20459;-67
2023/01/27 07:02:02;;;;;;;19.45;6.78;;;;;;;;;;5058370;28;20028;-70
2023/01/27 07:04:28;;;;;;;16.50;6.40;;;;;;;;;;5050273;28;20050;-65
2023/01/27 07:06:53;;;;;;;16.38;6.22;;;;;;;;;;5055225;28;20459;-65
2023/01/27 07:09:19;;;;;;;18.75;6.53;;;;;;;;;;5054199;28;20555;-68
2023/01/27 07:11:44;;;;;;;15.63;6.30;;;;;;;;;;5053876;28;20107;-64
2023/01/27 07:14:09;;;;;;;13.38;5.38;;;;;;;;;;5052850;28;20440;-67
2023/01/27 07:16:34;;;;;;;15.83;6.13;;;;;;;;;;5049496;28;20087;-65
2023/01/27 07:18:59;;;;;;;15.63;5.82;;;;;;;;;;5058043;28;20024;-68
2023/01/27 07:21:25;;;;;;;14.82;5.93;;;;;;;;;;5069200;28;20039;-67
2023/01/27 07:23:50;;;;;;;15.90;5.90;;;;;;;;;;5061136;28;20489;-67
2023/01/27 07:26:15;;;;;;;12.90;5.28;;;;;;;;;;5049792;28;20028;-66
2023/01/27 07:28:40;;;;;;;15.18;5.75;;;;;;;;;;5050018;28;20042;-68
2023/01/27 07:31:05;;;;;;;15.57;5.70;;;;;;;;;;5049482;28;20024;-66
2023/01/27 07:33:30;;;;;;;13.27;5.55;;;;;;;;;;5052297;28;20016;-68
2023/01/27 07:35:55;;;;;;;16.07;5.97;;;;;;;;;;5061388;28;20025;-64
2023/01/27 07:38:21;;;;;;;18.07;6.60;;;;;;;;;;5062087;28;20060;-67
2023/01/27 07:40:46;;;;;;;15.63;6.43;;;;;;;;;;5045278;28;20436;-64
2023/01/27 07:43:11;;;;;;;14.60;5.72;;;;;;;;;;5045471;28;20481;-66
2023/01/27 07:45:36;;;;;;;16.97;5.70;;;;;;;;;;5046044;28;20035;-66
2023/01/27 07:48:03;;;;;;;14.70;5.95;;;;;;;;;;5051288;28;20447;-61
2023/01/27 07:50:28;;;;;;;20.83;6.50;;;;;;;;;;5049282;28;20040;-61
2023/01/27 07:52:53;;;;;;;18.83;6.80;;;;;;;;;;5049191;28;20022;-63
2023/01/27 07:55:18;;;;;;;17.90;6.47;;;;;;;;;;5056794;28;20086;-63
2023/01/27 07:57:43;;;;;;;16.60;6.10;;;;;;;;;;5058750;28;20016;-62
2023/01/27 08:00:09;;;;;;;19.33;6.03;;;;;;;;;;5060737;28;20040;-63
2023/01/27 08:02:34;;;;;;;16.08;6.22;;;;;;;;;;5070559;28;20024;-62
2023/01/27 08:04:59;;;;;;;14.88;5.65;;;;;;;;;;5075036;28;20026;-63
2023/01/27 08:07:24;;;;;;;13.50;5.22;;;;;;;;;;5072377;28;20033;-65
2023/01/27 08:09:49;;;;;;;15.98;5.53;;;;;;;;;;5059845;28;20021;-62
2023/01/27 08:12:14;;;;;;;14.57;5.47;;;;;;;;;;5058356;28;20547;-63
2023/01/27 08:14:40;;;;;;;13.40;5.17;;;;;;;;;;5062577;28;20051;-63
2023/01/27 08:17:05;;;;;;;15.30;5.10;;;;;;;;;;5054073;28;20573;-62
2023/01/27 08:19:30;;;;;;;15.63;6.25;;;;;;;;;;5053535;28;20017;-63
2023/01/27 08:21:55;;;;;;;12.57;5.40;;;;;;;;;;5050720;28;20035;-62
2023/01/27 08:24:20;;;;;;;18.13;5.38;;;;;;;;;;5062882;28;20039;-62
2023/01/27 08:26:45;;;;;;;17.60;6.35;;;;;;;;;;5059393;28;20531;-63
2023/01/27 08:29:10;;;;;;;16.27;5.90;;;;;;;;;;5055534;28;20025;-62
2023/01/27 08:31:36;;;;;;;16.70;5.55;;;;;;;;;;5055676;28;20071;-63
2023/01/27 08:34:01;;;;;;;17.97;6.47;;;;;;;;;;5061087;28;20367;-62
2023/01/27 08:36:26;;;;;;;17.42;6.35;;;;;;;;;;5064894;28;20036;-63
2023/01/27 08:38:51;;;;;;;17.30;6.30;;;;;;;;;;5060512;28;20045;-63
2023/01/27 08:41:21;;;;;;;17.23;6.23;;;;;;;;;;5046788;28;20033;-62
2023/01/27 08:43:47;;;;;;;20.63;8.13;;;;;;;;;;5073340;28;20366;-63
2023/01/27 08:46:13;;;;;;;18.20;6.68;;;;;;;;;;5070156;28;20117;-62
2023/01/27 08:48:38;;;;;;;15.77;6.72;;;;;;;;;;5066435;28;20024;-63
2023/01/27 08:51:04;;;;;;;13.70;6.18;;;;;;;;;;5064070;28;20037;-62
2023/01/27 08:53:30;;;;;;;16.20;6.05;;;;;;;;;;5059271;28;20017;-63
2023/01/27 08:55:56;;;;;;;14.90;5.55;;;;;;;;;;5061156;28;20066;-62
2023/01/27 08:58:21;;;;;;;14.73;5.75;;;;;;;;;;5052606;28;20013;-62
2023/01/27 09:00:46;;;;;;;17.77;7.83;;;;;;;;;;5052466;28;20466;-62
2023/01/27 09:03:12;;;;;;;14.53;6.97;;;;;;;;;;5052525;28;20386;-62
2023/01/27 09:05:37;;;;;;;16.17;6.78;;;;;;;;;;5056860;28;20658;-62
2023/01/27 09:08:03;;;;;;;17.15;6.63;;;;;;;;;;5062231;28;20083;-63
2023/01/27 09:10:30;;;;;;;16.85;6.55;;;;;;;;;;5059959;28;20025;-62
2023/01/27 09:12:55;;;;;;;14.27;5.70;;;;;;;;;;5067789;28;20016;-62
2023/01/27 09:15:20;;;;;;;14.63;5.63;;;;;;;;;;5075362;28;20036;-62
2023/01/27 09:17:46;;;;;;;15.32;6.40;;;;;;;;;;5075449;28;20032;-62
2023/01/27 09:20:11;;;;;;;15.45;6.35;;;;;;;;;;5063118;28;20028;-63
2023/01/27 09:22:39;;;;;;;16.42;6.22;;;;;;;;;;5067981;28;20024;-61
2023/01/27 09:25:06;;;;;;;18.05;7.85;;;;;;;;;;5069611;28;20446;-63
2023/01/27 09:27:31;;;;;;;16.77;6.93;;;;;;;;;;5059893;28;20055;-63
2023/01/27 09:29:56;;;;;;;16.42;7.10;;;;;;;;;;5065192;28;20025;-64
2023/01/27 09:32:21;;;;;;;15.27;6.50;;;;;;;;;;5076131;28;20021;-63
2023/01/27 09:34:46;;;;;;;16.13;6.90;;;;;;;;;;5058451;28;20037;-61
2023/01/27 09:37:12;;;;;;;16.80;6.33;;;;;;;;;;5052915;28;20032;-63
2023/01/27 09:39:40;;;;;;;15.68;6.75;;;;;;;;;;5055970;28;20341;-61
2023/01/27 09:42:08;;;;;;;16.35;6.97;;;;;;;;;;5058664;28;20032;-62
2023/01/27 09:44:52;;;;;;;15.57;6.47;;;;;;;;;;5064499;28;20424;-62
2023/01/27 09:47:50;;;;;;;15.90;6.35;;;;;;;;;;5065979;28;20071;-61
2023/01/27 09:50:29;;;;;;;16.13;6.30;;;;;;;;;;5025242;28;20059;-64
2023/01/27 09:53:12;;;;;;;13.23;5.75;;;;;;;;;;5051929;28;20032;-61
2023/01/27 09:55:54;;;;;;;16.20;6.38;;;;;;;;;;5046353;28;20040;-63
2023/01/27 09:58:47;;;;;;;17.20;6.85;;;;;;;;;;5071020;28;20020;-63
2023/01/27 10:01:31;;;;;;;17.90;7.68;;;;;;;;;;5067421;28;20032;-63
2023/01/27 10:04:10;;;;;;;18.80;7.72;;;;;;;;;;5058136;28;20175;-63
2023/01/27 10:06:39;;;;;;;17.10;7.30;;;;;;;;;;5060284;28;20063;-64
2023/01/27 10:09:14;;;;;;;18.60;7.82;;;;;;;;;;5073835;28;20110;-64
2023/01/27 10:11:42;;;;;;;14.07;6.10;;;;;;;;;;5063152;28;20656;-63
2023/01/27 10:14:19;;;;;;;15.68;6.88;;;;;;;;;;5069645;28;20017;-62
2023/01/27 10:16:56;;;;;;;18.95;7.45;;;;;;;;;;5055262;28;20032;-66
2023/01/27 10:19:40;;;;;;;15.88;6.50;;;;;;;;;;5064293;28;20089;-62
2023/01/27 10:22:05;;;;;;;;;;;;;;;;;;5072099;28;20169;-62
2023/01/27 10:24:49;;;;;;;18.13;7.55;;;;;;;;;;5065522;28;19948;-63
2023/01/27 10:27:24;;;;;;;18.02;6.82;;;;;;;;;;5063337;28;20111;-64
2023/01/27 10:29:56;;;;;;;13.73;6.20;;;;;;;;;;5070537;28;20027;-61
2023/01/27 10:32:25;;;;;;;16.65;7.00;;;;;;;;;;5060194;28;20024;-63
2023/01/27 10:35:08;;;;;;;17.40;7.10;;;;;;;;;;5050340;28;20079;-63
2023/01/27 10:37:46;;;;;;;16.85;7.25;;;;;;;;;;5040911;28;20091;-64
2023/01/27 10:40:28;;;;;;;18.02;7.20;;;;;;;;;;5039558;28;20029;-62
2023/01/27 10:43:10;;;;;;;17.02;6.97;;;;;;;;;;5064221;28;20016;-64
2023/01/27 10:45:37;;;;;;;18.77;7.88;;;;;;;;;;5067311;28;20020;-61
2023/01/27 10:48:11;;;;;;;19.40;7.80;;;;;;;;;;5150173;22;20307;-68
2023/01/27 10:50:40;;;;;;;17.67;7.90;;;;;;;;;;5045031;28;20044;-69
2023/01/27 10:53:15;;;;;;;17.40;7.55;;;;;;;;;;5051576;28;20029;-68
2023/01/27 10:55:45;;;;;;;17.42;7.20;;;;;;;;;;5050684;28;20068;-68
2023/01/27 10:58:33;;;;;;;18.88;7.45;;;;;;;;;;5050254;28;20028;-69
2023/01/27 11:00:59;;;;;;;19.38;8.00;;;;;;;;;;5035989;28;20027;-68
2023/01/27 11:03:27;;;;;;;19.40;8.00;;;;;;;;;;5040132;28;20025;-66
2023/01/27 11:05:55;;;;;;;23.92;8.38;;;;;;;;;;5050981;28;20099;-67
2023/01/27 11:08:28;;;;;;;20.35;8.13;;;;;;;;;;5031972;28;20099;-66
2023/01/27 11:13:39;;;;;;;20.30;7.97;;;;;;;;;;5049620;28;20096;-66
2023/01/27 11:16:08;;;;;;;18.60;7.75;;;;;;;;;;5037132;28;20033;-65
2023/01/27 11:18:36;;;;;;;18.95;7.75;;;;;;;;;;5046634;28;20018;-68
2023/01/27 11:21:03;;;;;;;18.33;7.18;;;;;;;;;;5050133;28;20393;-67
2023/01/27 11:23:39;;;;;;;19.25;7.78;;;;;;;;;;5042622;28;20055;-67
2023/01/27 11:26:23;;;;;;;19.88;7.57;;;;;;;;;;5050502;28;20037;-67
2023/01/27 11:29:03;;;;;;;16.77;7.20;;;;;;;;;;5050694;28;20457;-68
2023/01/27 11:31:52;;;;;;;19.13;7.80;;;;;;;;;;5050115;28;20074;-66
2023/01/27 11:34:22;;;;;;;20.90;8.02;;;;;;;;;;5042525;28;20104;-65
2023/01/27 11:36:49;;;;;;;21.60;8.73;;;;;;;;;;5043283;28;20067;-68
2023/01/27 11:39:14;;;;;;;19.58;8.75;;;;;;;;;;5030567;28;20097;-67
2023/01/27 11:41:42;;;;;;;21.15;8.20;;;;;;;;;;5030685;28;20156;-67
2023/01/27 11:44:15;;;;;;;20.25;8.07;;;;;;;;;;5031117;28;20387;-66
2023/01/27 11:46:42;;;;;;;21.92;8.13;;;;;;;;;;5031551;28;20025;-66
2023/01/27 11:49:08;;;;;;;22.92;8.30;;;;;;;;;;5042992;28;20021;-66
2023/01/27 11:51:38;;;;;;;22.55;8.90;;;;;;;;;;5034413;28;20017;-67
2023/01/27 11:54:11;;;;;;;24.13;9.07;;;;;;;;;;5050408;28;20539;-66
2023/01/27 11:56:37;;;;;;;22.52;8.20;;;;;;;;;;5050551;28;20397;-67
2023/01/27 11:59:13;;;;;;;24.77;8.77;;;;;;;;;;5050407;28;20378;-67
2023/01/27 12:01:51;;;;;;;23.27;9.25;;;;;;;;;;5049957;28;20096;-68
2023/01/27 12:04:20;;;;;;;23.35;8.82;;;;;;;;;;5047171;28;20028;-66
2023/01/27 12:06:50;;;;;;;22.92;9.30;;;;;;;;;;5050065;28;20052;-67
2023/01/27 12:09:32;;;;;;;25.40;9.40;;;;;;;;;;5031591;28;20107;-66
2023/01/27 12:12:08;;;;;;;22.63;8.98;;;;;;;;;;5030196;28;20021;-67
2023/01/27 12:14:33;;;;;;;25.15;9.82;;;;;;;;;;5030276;28;20487;-67
2023/01/27 12:17:01;;;;;;;24.77;9.00;;;;;;;;;;5030350;28;20032;-68
2023/01/27 12:19:28;;;;;;;23.90;9.43;;;;;;;;;;5036334;28;20466;-67
2023/01/27 12:21:53;;;;;;;;;;;;;;;;;;5049636;28;20057;-67
2023/01/27 12:24:24;;;;;;;24.95;8.57;;;;;;;;;;5048521;28;19947;-68
2023/01/27 12:26:51;;;;;;;27.45;9.55;;;;;;;;;;5043192;28;20024;-67
2023/01/27 12:29:18;;;;;;;24.02;8.27;;;;;;;;;;5040237;28;20029;-68
2023/01/27 12:31:48;;;;;;;29.52;10.38;;;;;;;;;;5049446;28;20442;-68
2023/01/27 12:34:21;;;;;;;26.17;9.35;;;;;;;;;;5043941;28;20027;-67
2023/01/27 12:36:46;;;;;;;26.98;8.98;;;;;;;;;;5039550;28;20048;-65
2023/01/27 12:39:33;;;;;;;25.15;9.25;;;;;;;;;;5032268;28;20109;-66
2023/01/27 12:41:59;;;;;;;25.85;10.27;;;;;;;;;;5043857;28;20438;-66
2023/01/27 12:44:27;;;;;;;26.40;9.87;;;;;;;;;;5044469;28;20025;-66
2023/01/27 12:47:03;;;;;;;22.90;8.02;;;;;;;;;;5054085;28;20084;-66
2023/01/27 12:49:33;;;;;;;24.73;9.55;;;;;;;;;;5052861;28;20021;-67
2023/01/27 12:51:59;;;;;;;24.42;8.38;;;;;;;;;;5063630;28;20025;-66
2023/01/27 12:54:26;;;;;;;22.02;8.63;;;;;;;;;;5057898;28;20375;-67
2023/01/27 12:56:52;;;;;;;23.63;8.75;;;;;;;;;;5052770;28;20037;-65
2023/01/27 12:59:18;;;;;;;24.75;9.25;;;;;;;;;;5043931;28;20386;-67
2023/01/27 13:01:55;;;;;;;25.02;9.25;;;;;;;;;;5052351;28;20017;-67
2023/01/27 13:04:21;;;;;;;25.45;9.02;;;;;;;;;;5049090;28;20433;-67
2023/01/27 13:07:06;;;;;;;27.45;10.00;;;;;;;;;;5052989;28;20028;-67
2023/01/27 13:09:36;;;;;;;23.25;8.98;;;;;;;;;;5052652;28;20195;-66
2023/01/27 13:12:10;;;;;;;24.23;9.75;;;;;;;;;;5052287;28;20031;-67
2023/01/27 13:14:39;;;;;;;24.38;9.77;;;;;;;;;;5052829;28;20052;-67
2023/01/27 13:17:24;;;;;;;22.65;8.13;;;;;;;;;;5048363;28;20068;-67
2023/01/27 13:19:53;;;;;;;23.88;9.68;;;;;;;;;;5051619;28;20017;-67
2023/01/27 13:22:19;;;;;;;29.08;9.77;;;;;;;;;;5047057;28;20029;-66
2023/01/27 13:24:47;;;;;;;26.67;10.00;;;;;;;;;;5046746;28;20028;-67
2023/01/27 13:27:17;;;;;;;21.40;8.27;;;;;;;;;;5032527;28;20104;-67
2023/01/27 13:29:48;;;;;;;21.80;8.75;;;;;;;;;;5036037;28;20025;-67
2023/01/27 13:32:23;;;;;;;24.05;8.82;;;;;;;;;;5051641;28;20078;-67
2023/01/27 13:35:12;;;;;;;21.02;8.13;;;;;;;;;;5044193;28;20043;-66
2023/01/27 13:37:45;;;;;;;20.38;8.23;;;;;;;;;;5052355;28;20063;-67
2023/01/27 13:40:10;;;;;;;;;;;;;;;;;;5052657;28;20028;-67
2023/01/27 13:42:44;;;;;;;19.30;7.32;;;;;;;;;;5053194;28;19904;-66
2023/01/27 13:45:17;;;;;;;19.92;6.97;;;;;;;;;;5049944;28;20036;-67
2023/01/27 13:48:00;;;;;;;20.50;7.88;;;;;;;;;;5052295;28;20033;-67
2023/01/27 13:50:34;;;;;;;22.05;8.63;;;;;;;;;;5035651;28;20496;-68
2023/01/27 13:52:59;;;;;;;19.55;7.72;;;;;;;;;;5043855;28;20070;-67
2023/01/27 13:55:40;;;;;;;20.95;7.53;;;;;;;;;;5052451;28;20021;-67
2023/01/27 13:58:11;;;;;;;20.70;8.10;;;;;;;;;;5052530;28;20128;-68
2023/01/27 14:00:50;;;;;;;21.88;8.43;;;;;;;;;;5051833;28;20466;-68
2023/01/27 14:03:34;;;;;;;22.17;8.30;;;;;;;;;;5047506;28;20025;-65
2023/01/27 14:06:18;;;;;;;20.30;8.50;;;;;;;;;;5032096;28;20031;-67
2023/01/27 14:09:02;;;;;;;19.95;8.00;;;;;;;;;;5031946;28;20032;-67
2023/01/27 14:11:41;;;;;;;16.00;6.55;;;;;;;;;;5028390;28;20032;-68
2023/01/27 14:14:20;;;;;;;18.80;7.57;;;;;;;;;;5028544;28;20162;-67
2023/01/27 14:16:45;;;;;;;;;;;;;;;;;;5044856;28;20067;-67
2023/01/27 14:19:29;;;;;;;18.35;7.57;;;;;;;;;;5046639;28;19944;-67
2023/01/27 14:22:00;;;;;;;19.30;8.00;;;;;;;;;;5041367;28;20425;-67
2023/01/27 14:24:31;;;;;;;18.63;7.63;;;;;;;;;;5028370;28;20072;-67
2023/01/27 14:27:14;;;;;;;17.30;7.30;;;;;;;;;;5028586;28;20821;-67
2023/01/27 14:29:58;;;;;;;17.70;7.38;;;;;;;;;;5038067;28;20028;-68
2023/01/27 14:32:35;;;;;;;19.88;7.82;;;;;;;;;;5045752;28;20052;-67
2023/01/27 14:35:05;;;;;;;18.13;7.30;;;;;;;;;;5046961;28;20032;-67
2023/01/27 14:37:39;;;;;;;17.58;7.38;;;;;;;;;;5047170;28;20033;-67
2023/01/27 14:40:14;;;;;;;16.73;7.32;;;;;;;;;;5031803;28;20032;-67
2023/01/27 14:42:39;;;;;;;16.67;7.03;;;;;;;;;;5028246;28;20033;-66
2023/01/27 14:45:04;;;;;;;17.60;7.65;;;;;;;;;;5035027;28;20022;-68
2023/01/27 14:47:37;;;;;;;16.47;7.63;;;;;;;;;;5041235;28;20020;-66
2023/01/27 14:50:12;;;;;;;18.27;7.45;;;;;;;;;;5039720;28;20021;-67
2023/01/27 14:52:44;;;;;;;18.50;7.20;;;;;;;;;;5043580;28;20025;-66
2023/01/27 14:55:27;;;;;;;18.15;7.72;;;;;;;;;;5046020;28;20512;-67
2023/01/27 14:57:58;;;;;;;14.50;6.47;;;;;;;;;;5045520;28;20486;-65
2023/01/27 15:00:26;;;;;;;18.73;6.82;;;;;;;;;;5045288;28;20464;-66
2023/01/27 15:03:11;;;;;;;15.38;7.28;;;;;;;;;;5042316;28;20082;-68
2023/01/27 15:05:48;;;;;;;18.25;7.15;;;;;;;;;;5019366;28;20029;-67
2023/01/27 15:08:25;;;;;;;17.77;7.63;;;;;;;;;;5045898;28;20025;-67